Time;durP1;ratioP1;P1;durP2;ratioP2;P2;SDS_P1;SDS_P2;PMS_P1;PMS_P2;Temp;Humidity;BMP_temperature;BMP_pressure;BME280_temperature;BME280_humidity;BME280_pressure;Samples;Min_cycle;Max_cycle;Signal;HPM_P1;HPM_P2
2022/04/01 00:02:05;;;;;;;23.20;8.20;;;;;;;;;;4943470;29;20351;-94
2022/04/01 00:04:31;;;;;;;15.77;7.35;;;;;;;;;;4943149;29;20028;-94
2022/04/01 00:06:58;;;;;;;18.17;7.03;;;;;;;;;;4943301;29;20027;-93
2022/04/01 00:09:24;;;;;;;18.92;7.30;;;;;;;;;;4943138;29;20028;-94
2022/04/01 00:11:51;;;;;;;18.98;7.57;;;;;;;;;;4943125;29;20028;-94
2022/04/01 00:14:17;;;;;;;21.27;7.85;;;;;;;;;;4943004;29;20401;-93
2022/04/01 00:16:43;;;;;;;15.60;7.70;;;;;;;;;;4943056;29;20107;-94
2022/04/01 00:19:12;;;;;;;19.90;6.78;;;;;;;;;;4943866;29;20445;-95
2022/04/01 00:21:39;;;;;;;20.17;7.68;;;;;;;;;;4955328;29;20035;-96
2022/04/01 00:24:06;;;;;;;15.25;7.05;;;;;;;;;;4951580;29;20469;-95
2022/04/01 00:26:32;;;;;;;22.70;7.65;;;;;;;;;;4942664;29;20044;-95
2022/04/01 00:28:58;;;;;;;18.10;7.00;;;;;;;;;;4926010;29;20039;-96
2022/04/01 00:31:25;;;;;;;16.02;6.65;;;;;;;;;;4942717;29;20059;-96
2022/04/01 00:34:15;;;;;;;16.08;7.28;;;;;;;;;;4926563;29;20027;-96
2022/04/01 00:36:37;;;;;;;23.08;7.30;;;;;;;;;;4942881;29;20083;-96
2022/04/01 00:39:03;;;;;;;17.10;7.30;;;;;;;;;;4943100;29;20031;-96
2022/04/01 00:41:29;;;;;;;18.63;7.97;;;;;;;;;;4925772;29;20028;-94
2022/04/01 00:44:15;;;;;;;20.60;7.32;;;;;;;;;;4925892;29;20028;-93
2022/04/01 00:46:45;;;;;;;20.05;6.70;;;;;;;;;;4942567;29;20414;-94
2022/04/01 00:49:11;;;;;;;19.40;7.35;;;;;;;;;;4942497;29;20063;-93
2022/04/01 00:51:37;;;;;;;21.92;7.90;;;;;;;;;;4948082;29;20032;-96
2022/04/01 00:54:07;;;;;;;20.33;7.65;;;;;;;;;;4942786;29;20020;-95
2022/04/01 00:56:34;;;;;;;22.80;7.55;;;;;;;;;;4925536;29;20039;-95
2022/04/01 00:59:00;;;;;;;20.35;8.40;;;;;;;;;;4926533;29;20417;-96
2022/04/01 01:01:26;;;;;;;20.70;8.02;;;;;;;;;;4941282;29;20055;-94
2022/04/01 01:03:53;;;;;;;18.83;7.60;;;;;;;;;;4925220;29;20066;-93
2022/04/01 01:06:19;;;;;;;20.15;8.32;;;;;;;;;;4925484;29;20034;-96
2022/04/01 01:08:45;;;;;;;25.05;8.25;;;;;;;;;;4942036;29;20031;-95
2022/04/01 01:11:12;;;;;;;19.60;7.65;;;;;;;;;;4925919;29;20098;-95
2022/04/01 01:13:39;;;;;;;25.00;7.93;;;;;;;;;;4941970;29;20423;-95
2022/04/01 01:16:28;;;;;;;26.40;8.25;;;;;;;;;;4955601;29;20028;-96
2022/04/01 01:19:00;;;;;;;23.40;8.25;;;;;;;;;;4957927;29;20095;-96
2022/04/01 01:21:27;;;;;;;27.90;9.10;;;;;;;;;;4929643;29;20028;-96
2022/04/01 01:23:56;;;;;;;26.88;8.48;;;;;;;;;;4941823;29;20028;-94
2022/04/01 01:26:22;;;;;;;27.40;8.07;;;;;;;;;;4940928;29;20056;-96
2022/04/01 01:28:49;;;;;;;22.05;7.53;;;;;;;;;;4927377;29;20055;-95
2022/04/01 01:31:15;;;;;;;24.63;7.95;;;;;;;;;;4925266;29;20024;-94
2022/04/01 01:33:43;;;;;;;18.70;8.57;;;;;;;;;;4928849;29;20051;-94
2022/04/01 01:36:10;;;;;;;21.35;7.97;;;;;;;;;;4943095;29;20034;-95
2022/04/01 01:38:36;;;;;;;19.05;7.95;;;;;;;;;;4942761;29;20079;-96
2022/04/01 01:41:02;;;;;;;24.15;8.43;;;;;;;;;;4942149;29;20106;-95
2022/04/01 01:43:29;;;;;;;25.65;8.18;;;;;;;;;;4941610;29;20091;-95
2022/04/01 01:45:55;;;;;;;27.75;8.38;;;;;;;;;;4941457;29;20036;-95
2022/04/01 01:48:22;;;;;;;18.98;7.13;;;;;;;;;;4924907;29;20024;-94
2022/04/01 01:56:18;;;;;;;19.08;7.70;;;;;;;;;;4941661;29;20047;-94
2022/04/01 01:58:45;;;;;;;25.73;8.30;;;;;;;;;;4924461;29;20039;-94
2022/04/01 02:01:11;;;;;;;20.20;7.55;;;;;;;;;;4941137;29;20039;-94
2022/04/01 02:03:38;;;;;;;23.80;8.02;;;;;;;;;;4923621;29;20031;-93
2022/04/01 02:06:04;;;;;;;21.52;7.15;;;;;;;;;;4941376;29;20087;-95
2022/04/01 02:08:30;;;;;;;20.83;7.18;;;;;;;;;;4941004;29;20055;-95
2022/04/01 02:10:57;;;;;;;21.15;7.68;;;;;;;;;;4941083;29;20052;-95
2022/04/01 02:13:23;;;;;;;21.25;7.90;;;;;;;;;;4940858;29;20024;-95
2022/04/01 02:15:50;;;;;;;26.85;7.78;;;;;;;;;;4941201;29;20023;-94
2022/04/01 02:18:16;;;;;;;24.85;8.68;;;;;;;;;;4924114;29;20032;-93
2022/04/01 02:20:43;;;;;;;28.45;8.38;;;;;;;;;;4940983;29;20024;-95
2022/04/01 02:23:09;;;;;;;22.45;8.32;;;;;;;;;;4941791;29;20019;-96
2022/04/01 02:31:34;;;;;;;22.52;8.52;;;;;;;;;;5092201;23;20082;-96
2022/04/01 02:34:05;;;;;;;30.38;8.27;;;;;;;;;;4918459;29;20020;-96
2022/04/01 02:36:31;;;;;;;21.88;8.27;;;;;;;;;;4916538;29;20036;-96
2022/04/01 02:38:59;;;;;;;21.02;7.95;;;;;;;;;;4903697;29;20085;-93
2022/04/01 02:41:26;;;;;;;21.42;6.57;;;;;;;;;;4902581;29;20029;-93
2022/04/01 02:44:08;;;;;;;19.15;7.00;;;;;;;;;;4902893;29;20028;-92
2022/04/01 02:46:34;;;;;;;17.98;6.97;;;;;;;;;;4902452;29;20069;-95
2022/04/01 02:49:01;;;;;;;23.17;7.20;;;;;;;;;;4902527;29;20088;-96
2022/04/01 02:51:27;;;;;;;19.23;7.10;;;;;;;;;;4902792;29;20031;-96
2022/04/01 02:53:53;;;;;;;19.98;7.18;;;;;;;;;;4902246;29;20020;-96
2022/04/01 02:56:19;;;;;;;18.33;6.38;;;;;;;;;;4901381;29;20077;-96
2022/04/01 02:58:45;;;;;;;19.85;6.28;;;;;;;;;;4902486;29;20048;-94
2022/04/01 03:01:11;;;;;;;18.45;6.57;;;;;;;;;;4902600;29;20032;-94
2022/04/01 03:03:37;;;;;;;17.42;6.30;;;;;;;;;;4902314;29;20048;-92
2022/04/01 03:06:04;;;;;;;16.58;5.95;;;;;;;;;;4902321;29;20027;-93
2022/04/01 03:08:30;;;;;;;14.65;6.05;;;;;;;;;;4901945;29;20311;-93
2022/04/01 03:10:58;;;;;;;18.85;6.35;;;;;;;;;;4902386;29;20345;-93
2022/04/01 03:13:25;;;;;;;15.30;6.43;;;;;;;;;;4902425;29;20418;-93
2022/04/01 03:15:51;;;;;;;13.07;5.25;;;;;;;;;;4906240;29;20040;-93
2022/04/01 03:18:17;;;;;;;15.68;6.55;;;;;;;;;;4904968;29;20051;-93
2022/04/01 03:20:45;;;;;;;16.38;6.55;;;;;;;;;;4905433;29;20036;-94
2022/04/01 03:23:11;;;;;;;14.02;5.90;;;;;;;;;;4905991;29;20028;-96
2022/04/01 03:25:37;;;;;;;19.92;5.95;;;;;;;;;;4906273;29;20024;-94
2022/04/01 03:28:04;;;;;;;13.35;5.75;;;;;;;;;;4907148;29;20029;-96
2022/04/01 03:30:30;;;;;;;13.55;5.15;;;;;;;;;;4909173;29;20152;-94
2022/04/01 03:32:56;;;;;;;19.67;6.88;;;;;;;;;;4906033;29;20024;-93
2022/04/01 03:35:23;;;;;;;22.00;13.48;;;;;;;;;;4905308;29;20485;-94
2022/04/01 03:37:50;;;;;;;183.35;111.22;;;;;;;;;;4905727;29;20035;-94
2022/04/01 03:40:17;;;;;;;57.58;36.63;;;;;;;;;;4906263;29;20036;-95
2022/04/01 03:42:44;;;;;;;20.77;11.52;;;;;;;;;;4905584;29;20029;-95
2022/04/01 03:45:11;;;;;;;25.55;10.20;;;;;;;;;;4908213;29;20044;-96
2022/04/01 03:47:40;;;;;;;21.40;11.48;;;;;;;;;;4907862;29;20040;-93
2022/04/01 03:50:09;;;;;;;16.80;7.63;;;;;;;;;;4905671;29;20036;-92
2022/04/01 03:52:35;;;;;;;15.52;7.90;;;;;;;;;;4904647;29;20024;-94
2022/04/01 03:55:06;;;;;;;14.35;7.30;;;;;;;;;;4904552;29;20108;-93
2022/04/01 03:57:36;;;;;;;14.30;6.40;;;;;;;;;;4905805;29;20021;-94
2022/04/01 04:00:04;;;;;;;20.08;6.95;;;;;;;;;;4905283;29;20431;-93
2022/04/01 04:02:37;;;;;;;16.83;6.97;;;;;;;;;;4914606;29;20036;-96
2022/04/01 04:05:06;;;;;;;19.52;6.95;;;;;;;;;;4905242;29;20020;-96
2022/04/01 04:07:33;;;;;;;19.92;7.65;;;;;;;;;;4907747;29;20032;-95
2022/04/01 04:10:06;;;;;;;19.73;7.25;;;;;;;;;;4905059;29;20076;-95
2022/04/01 04:12:35;;;;;;;19.63;8.48;;;;;;;;;;4904118;29;20056;-95
2022/04/01 04:15:01;;;;;;;16.05;6.88;;;;;;;;;;4905425;29;20355;-96
2022/04/01 04:17:41;;;;;;;20.95;7.63;;;;;;;;;;4905659;29;20024;-94
2022/04/01 04:20:09;;;;;;;16.42;7.05;;;;;;;;;;4904699;29;20078;-93
2022/04/01 04:22:46;;;;;;;21.00;7.68;;;;;;;;;;4904513;29;20028;-93
2022/04/01 04:25:13;;;;;;;16.63;6.53;;;;;;;;;;4904545;29;20029;-93
2022/04/01 04:28:02;;;;;;;21.50;6.90;;;;;;;;;;4903882;29;20041;-94
2022/04/01 04:38:46;;;;;;;25.45;12.43;;;;;;;;;;4882381;29;20140;-91
2022/04/01 04:41:12;;;;;;;28.77;12.45;;;;;;;;;;4868925;29;20034;-90
2022/04/01 04:43:42;;;;;;;24.73;10.32;;;;;;;;;;4869355;29;20104;-89
2022/04/01 04:46:38;;;;;;;17.92;9.27;;;;;;;;;;4902222;29;20025;-87
2022/04/01 04:49:04;;;;;;;15.00;7.15;;;;;;;;;;4872035;29;20033;-90
2022/04/01 04:51:30;;;;;;;17.35;7.45;;;;;;;;;;4867110;29;20067;-95
2022/04/01 04:54:01;;;;;;;21.20;7.78;;;;;;;;;;4867489;29;20021;-90
2022/04/01 04:56:27;;;;;;;16.92;8.27;;;;;;;;;;4867297;29;20029;-89
2022/04/01 04:58:56;;;;;;;27.50;10.38;;;;;;;;;;4867073;29;20108;-89
2022/04/01 05:01:41;;;;;;;28.25;10.90;;;;;;;;;;4867160;29;20057;-90
2022/04/01 05:04:10;;;;;;;25.30;9.38;;;;;;;;;;4866905;29;20033;-90
2022/04/01 05:06:46;;;;;;;23.20;10.52;;;;;;;;;;4867084;29;20037;-91
2022/04/01 05:09:41;;;;;;;22.92;11.70;;;;;;;;;;4867053;29;20026;-89
2022/04/01 05:12:26;;;;;;;26.08;10.88;;;;;;;;;;4828748;29;20038;-91
2022/04/01 05:14:55;;;;;;;26.02;11.32;;;;;;;;;;4813029;29;20372;-90
2022/04/01 05:17:26;;;;;;;19.02;8.07;;;;;;;;;;4828406;29;20418;-90
2022/04/01 05:19:58;;;;;;;19.50;7.73;;;;;;;;;;4813457;29;20171;-89
2022/04/01 05:22:29;;;;;;;19.42;7.80;;;;;;;;;;4828551;29;20262;-89
2022/04/01 05:24:59;;;;;;;18.67;8.52;;;;;;;;;;4828510;29;20075;-89
2022/04/01 05:27:28;;;;;;;14.48;7.45;;;;;;;;;;4813013;29;20034;-89
2022/04/01 05:30:13;;;;;;;19.90;9.95;;;;;;;;;;4828329;29;20307;-90
2022/04/01 05:32:40;;;;;;;30.35;10.52;;;;;;;;;;4812927;29;20121;-90
2022/04/01 05:35:06;;;;;;;25.30;11.95;;;;;;;;;;4828148;29;20045;-90
2022/04/01 05:37:34;;;;;;;32.25;16.75;;;;;;;;;;4811802;29;20053;-90
2022/04/01 05:40:05;;;;;;;26.58;16.20;;;;;;;;;;4813034;29;20022;-90
2022/04/01 05:42:32;;;;;;;101.55;50.55;;;;;;;;;;4813197;29;20369;-89
2022/04/01 05:44:59;;;;;;;105.88;64.25;;;;;;;;;;4828194;29;20426;-89
2022/04/01 05:47:26;;;;;;;52.53;35.38;;;;;;;;;;4815055;29;20029;-89
2022/04/01 05:49:55;;;;;;;28.38;19.13;;;;;;;;;;4866382;29;20033;-90
2022/04/01 05:52:22;;;;;;;20.00;11.40;;;;;;;;;;4866293;29;20044;-90
2022/04/01 05:54:49;;;;;;;21.55;9.82;;;;;;;;;;4866221;29;20029;-90
2022/04/01 05:57:17;;;;;;;20.17;10.05;;;;;;;;;;4866242;29;20086;-92
2022/04/01 05:59:43;;;;;;;15.25;8.82;;;;;;;;;;4865357;29;20401;-93
2022/04/01 06:02:30;;;;;;;19.30;7.82;;;;;;;;;;4866067;29;20128;-91
2022/04/01 06:05:15;;;;;;;16.10;7.72;;;;;;;;;;4866198;29;20036;-93
2022/04/01 06:08:00;;;;;;;18.05;6.65;;;;;;;;;;4866568;29;20456;-92
2022/04/01 06:10:39;;;;;;;15.10;6.07;;;;;;;;;;4865050;29;20439;-92
2022/04/01 06:13:40;;;;;;;15.90;6.30;;;;;;;;;;4865778;29;20045;-92
2022/04/01 06:16:09;;;;;;;16.88;5.85;;;;;;;;;;4809375;29;20031;-92
2022/04/01 06:18:53;;;;;;;19.85;6.63;;;;;;;;;;4809364;29;20062;-94
2022/04/01 06:21:24;;;;;;;13.88;5.90;;;;;;;;;;4794237;29;20031;-95
2022/04/01 06:23:50;;;;;;;17.27;6.38;;;;;;;;;;4809211;29;20159;-93
2022/04/01 06:29:02;;;;;;;15.00;6.55;;;;;;;;;;5538658;23;20340;-94
2022/04/01 06:31:29;;;;;;;13.73;6.35;;;;;;;;;;4902632;29;20032;-94
2022/04/01 06:34:14;;;;;;;17.73;6.05;;;;;;;;;;4886330;29;20030;-92
2022/04/01 06:36:41;;;;;;;13.40;6.70;;;;;;;;;;4902856;29;20029;-93
2022/04/01 06:39:08;;;;;;;13.63;6.30;;;;;;;;;;4886226;29;20450;-94
2022/04/01 06:41:47;;;;;;;13.40;6.45;;;;;;;;;;4902880;29;20412;-94
2022/04/01 06:44:13;;;;;;;15.93;6.32;;;;;;;;;;4902719;29;20088;-95
2022/04/01 06:46:39;;;;;;;18.38;7.40;;;;;;;;;;4902927;29;20412;-93
2022/04/01 06:49:08;;;;;;;15.80;5.38;;;;;;;;;;4902858;29;20402;-93
2022/04/01 06:51:39;;;;;;;14.93;5.88;;;;;;;;;;4902857;29;20029;-94
2022/04/01 06:54:05;;;;;;;15.77;7.25;;;;;;;;;;4886107;29;20028;-93
2022/04/01 06:56:32;;;;;;;32.35;13.57;;;;;;;;;;4902500;29;20108;-93
2022/04/01 06:58:58;;;;;;;29.85;11.98;;;;;;;;;;4902682;29;20049;-93
2022/04/01 07:01:25;;;;;;;41.05;12.45;;;;;;;;;;4902299;29;20043;-94
2022/04/01 07:03:52;;;;;;;59.38;20.48;;;;;;;;;;4902437;29;20111;-93
2022/04/01 07:06:19;;;;;;;65.70;19.65;;;;;;;;;;4902334;29;20112;-93
2022/04/01 07:08:47;;;;;;;60.28;15.88;;;;;;;;;;4902460;29;20103;-94
2022/04/01 07:11:15;;;;;;;41.08;22.80;;;;;;;;;;4902341;29;20424;-93
2022/04/01 07:13:42;;;;;;;34.30;12.40;;;;;;;;;;4886134;29;20020;-95
2022/04/01 07:16:10;;;;;;;36.35;11.68;;;;;;;;;;4902142;29;20029;-94
2022/04/01 07:18:37;;;;;;;39.92;11.65;;;;;;;;;;4903661;29;20416;-92
2022/04/01 07:21:03;;;;;;;30.60;9.93;;;;;;;;;;4902510;29;20395;-93
2022/04/01 07:23:30;;;;;;;18.35;7.05;;;;;;;;;;4902141;29;20411;-94
2022/04/01 07:25:56;;;;;;;16.92;9.85;;;;;;;;;;4885870;29;20112;-93
2022/04/01 07:28:22;;;;;;;18.50;9.80;;;;;;;;;;4902060;29;20073;-94
2022/04/01 07:30:50;;;;;;;10.32;6.65;;;;;;;;;;4901994;29;20152;-91
2022/04/01 07:33:26;;;;;;;10.95;5.55;;;;;;;;;;4914871;29;20025;-95
2022/04/01 07:35:52;;;;;;;13.73;5.30;;;;;;;;;;4886017;29;20046;-93
2022/04/01 07:38:18;;;;;;;10.60;5.05;;;;;;;;;;4902499;29;20033;-92
2022/04/01 07:40:44;;;;;;;13.80;5.72;;;;;;;;;;4902088;29;20095;-93
2022/04/01 07:43:10;;;;;;;25.02;9.98;;;;;;;;;;4902045;29;20024;-93
2022/04/01 07:45:37;;;;;;;29.30;10.93;;;;;;;;;;4901612;29;20025;-92
2022/04/01 07:48:03;;;;;;;28.67;11.68;;;;;;;;;;4902142;29;20038;-93
2022/04/01 07:50:29;;;;;;;19.60;8.68;;;;;;;;;;4902364;29;20021;-94
2022/04/01 07:52:56;;;;;;;15.23;6.22;;;;;;;;;;4885558;29;20060;-94
2022/04/01 07:55:23;;;;;;;17.90;6.07;;;;;;;;;;4902523;29;20029;-94
2022/04/01 07:57:50;;;;;;;11.68;4.63;;;;;;;;;;4901904;29;20048;-94
2022/04/01 08:00:35;;;;;;;15.30;5.88;;;;;;;;;;4885257;29;20048;-93
2022/04/01 08:03:01;;;;;;;15.40;4.97;;;;;;;;;;4905330;29;20032;-95
2022/04/01 08:05:27;;;;;;;14.38;5.18;;;;;;;;;;4888714;29;20029;-94
2022/04/01 08:07:53;;;;;;;13.55;6.63;;;;;;;;;;4905449;29;20032;-93
2022/04/01 08:10:19;;;;;;;13.40;7.22;;;;;;;;;;4905451;29;20093;-94
2022/04/01 08:12:45;;;;;;;12.05;5.18;;;;;;;;;;4905164;29;20025;-93
2022/04/01 08:15:14;;;;;;;12.52;5.00;;;;;;;;;;4905326;29;20048;-95
2022/04/01 08:17:41;;;;;;;14.43;4.90;;;;;;;;;;4905161;29;20057;-95
2022/04/01 08:20:08;;;;;;;13.90;5.00;;;;;;;;;;4888628;29;20032;-94
2022/04/01 08:22:34;;;;;;;17.15;7.47;;;;;;;;;;4905082;29;20025;-94
2022/04/01 08:25:00;;;;;;;15.52;5.75;;;;;;;;;;4905294;29;20029;-95
2022/04/01 08:27:26;;;;;;;16.98;4.97;;;;;;;;;;4888378;29;20032;-93
2022/04/01 08:29:57;;;;;;;11.65;4.50;;;;;;;;;;4904706;29;20052;-94
2022/04/01 08:32:23;;;;;;;13.55;5.13;;;;;;;;;;4905091;29;20029;-93
2022/04/01 08:34:49;;;;;;;15.40;5.03;;;;;;;;;;4904800;29;20029;-93
2022/04/01 08:37:18;;;;;;;12.77;4.70;;;;;;;;;;4888383;29;20036;-95
2022/04/01 08:39:47;;;;;;;11.10;4.45;;;;;;;;;;4888290;29;20387;-93
2022/04/01 08:42:14;;;;;;;11.15;4.97;;;;;;;;;;4905494;29;20071;-96
2022/04/01 08:44:41;;;;;;;13.95;4.72;;;;;;;;;;4904453;29;20028;-95
2022/04/01 08:47:08;;;;;;;13.18;5.38;;;;;;;;;;4904520;29;20031;-94
2022/04/01 08:49:34;;;;;;;24.50;9.38;;;;;;;;;;4904731;29;20032;-93
2022/04/01 08:52:01;;;;;;;17.40;8.00;;;;;;;;;;4904523;29;20037;-93
2022/04/01 08:54:27;;;;;;;9.13;5.15;;;;;;;;;;4904472;29;20115;-94
2022/04/01 08:56:53;;;;;;;12.13;4.68;;;;;;;;;;4904621;29;20021;-95
2022/04/01 08:59:19;;;;;;;10.52;4.57;;;;;;;;;;4905062;29;20036;-94
2022/04/01 09:01:46;;;;;;;13.63;5.07;;;;;;;;;;4905589;29;20428;-93
2022/04/01 09:04:16;;;;;;;10.38;5.38;;;;;;;;;;4887670;29;20324;-92
2022/04/01 09:06:43;;;;;;;7.75;5.13;;;;;;;;;;4904526;29;20036;-94
2022/04/01 09:09:21;;;;;;;10.43;4.80;;;;;;;;;;4904312;29;20029;-93
2022/04/01 09:12:03;;;;;;;9.00;5.47;;;;;;;;;;4903914;29;20081;-94
2022/04/01 09:14:29;;;;;;;10.98;5.70;;;;;;;;;;4904419;29;20031;-93
2022/04/01 09:16:56;;;;;;;9.18;5.13;;;;;;;;;;4887625;29;20028;-93
2022/04/01 09:19:29;;;;;;;8.68;5.50;;;;;;;;;;4904226;29;20313;-93
2022/04/01 09:21:55;;;;;;;9.52;6.90;;;;;;;;;;4887685;29;20040;-92
2022/04/01 09:24:21;;;;;;;12.93;7.28;;;;;;;;;;4903945;29;20036;-94
2022/04/01 09:26:53;;;;;;;12.32;7.57;;;;;;;;;;4887429;29;20029;-94
2022/04/01 09:29:19;;;;;;;8.82;6.30;;;;;;;;;;4887325;29;20049;-94
2022/04/01 09:31:50;;;;;;;10.55;6.35;;;;;;;;;;4903880;29;20029;-95
2022/04/01 09:34:17;;;;;;;10.50;6.25;;;;;;;;;;4887444;29;20025;-93
2022/04/01 09:36:44;;;;;;;12.25;6.85;;;;;;;;;;4903650;29;20438;-93
2022/04/01 09:39:17;;;;;;;14.32;9.23;;;;;;;;;;4904335;29;20040;-94
2022/04/01 09:41:43;;;;;;;15.07;9.05;;;;;;;;;;4903838;29;20033;-95
2022/04/01 09:44:18;;;;;;;17.83;10.43;;;;;;;;;;4904080;29;20020;-94
2022/04/01 09:46:56;;;;;;;16.70;10.77;;;;;;;;;;4887107;29;20076;-94
2022/04/01 09:49:30;;;;;;;16.85;10.32;;;;;;;;;;4903495;29;20426;-93
2022/04/01 09:51:57;;;;;;;7.68;5.47;;;;;;;;;;4903601;29;20446;-93
2022/04/01 09:54:27;;;;;;;10.95;7.68;;;;;;;;;;4888984;29;20021;-95
2022/04/01 09:56:58;;;;;;;11.77;8.20;;;;;;;;;;4906385;29;20115;-95
2022/04/01 09:59:25;;;;;;;13.75;8.73;;;;;;;;;;4903857;29;20036;-94
2022/04/01 10:01:51;;;;;;;8.10;6.60;;;;;;;;;;4903237;29;20041;-93
2022/04/01 10:04:17;;;;;;;11.35;7.10;;;;;;;;;;4886562;29;20416;-94
2022/04/01 10:06:43;;;;;;;9.65;7.03;;;;;;;;;;4886472;29;20051;-95
2022/04/01 10:09:10;;;;;;;11.98;8.18;;;;;;;;;;4886923;29;20029;-95
2022/04/01 10:11:37;;;;;;;10.98;7.70;;;;;;;;;;4886551;29;20119;-95
2022/04/01 10:14:07;;;;;;;17.90;9.45;;;;;;;;;;4903653;29;20381;-92
2022/04/01 10:16:35;;;;;;;18.35;9.25;;;;;;;;;;4902968;29;20032;-94
2022/04/01 10:19:04;;;;;;;25.20;11.18;;;;;;;;;;4886230;29;20159;-96
2022/04/01 10:21:30;;;;;;;9.20;5.72;;;;;;;;;;4903214;29;20035;-94
2022/04/01 10:24:17;;;;;;;10.35;6.28;;;;;;;;;;4885983;29;20029;-93
2022/04/01 10:26:49;;;;;;;12.57;6.50;;;;;;;;;;4809430;29;20043;-94
2022/04/01 10:29:16;;;;;;;6.55;3.80;;;;;;;;;;4793914;29;20047;-93
2022/04/01 10:31:52;;;;;;;11.15;4.50;;;;;;;;;;4809091;29;20070;-94
2022/04/01 10:34:20;;;;;;;3.58;2.45;;;;;;;;;;4809264;29;20031;-94
2022/04/01 10:36:59;;;;;;;6.95;2.92;;;;;;;;;;4809193;29;20050;-94
2022/04/01 10:39:25;;;;;;;4.15;2.53;;;;;;;;;;4809262;29;20034;-95
2022/04/01 10:42:08;;;;;;;6.68;2.67;;;;;;;;;;4810044;29;20027;-94
2022/04/01 10:44:51;;;;;;;5.90;2.80;;;;;;;;;;4810443;29;20430;-95
2022/04/01 10:47:17;;;;;;;3.38;1.65;;;;;;;;;;4794496;29;20031;-93
2022/04/01 10:52:30;;;;;;;7.00;5.20;;;;;;;;;;4814057;29;20045;-94
2022/04/01 10:55:07;;;;;;;1.70;1.45;;;;;;;;;;4808855;29;20430;-93
2022/04/01 10:57:39;;;;;;;1.45;1.08;;;;;;;;;;4809146;29;20068;-94
2022/04/01 11:00:08;;;;;;;1.80;1.20;;;;;;;;;;4809031;29;20129;-94
2022/04/01 11:02:34;;;;;;;3.58;1.88;;;;;;;;;;4808749;29;20035;-92
2022/04/01 11:05:00;;;;;;;2.72;1.70;;;;;;;;;;4902432;29;20413;-94
2022/04/01 11:07:27;;;;;;;2.55;1.80;;;;;;;;;;4902255;29;20048;-93
2022/04/01 11:10:00;;;;;;;2.58;1.80;;;;;;;;;;4902482;29;20134;-94
2022/04/01 11:12:58;;;;;;;4.22;2.15;;;;;;;;;;4886015;29;20080;-94
2022/04/01 11:15:34;;;;;;;5.25;2.42;;;;;;;;;;4808469;29;20070;-94
2022/04/01 11:18:00;;;;;;;3.92;2.70;;;;;;;;;;4808284;29;20061;-95
2022/04/01 11:20:31;;;;;;;4.13;2.53;;;;;;;;;;4793594;29;20033;-94
2022/04/01 11:22:59;;;;;;;6.35;3.50;;;;;;;;;;4793752;29;20031;-94
2022/04/01 11:25:25;;;;;;;7.20;5.15;;;;;;;;;;4808406;29;20387;-94
2022/04/01 11:27:57;;;;;;;8.90;6.05;;;;;;;;;;4808433;29;20056;-94
2022/04/01 11:30:54;;;;;;;6.25;4.15;;;;;;;;;;4808396;29;20047;-94
2022/04/01 11:33:21;;;;;;;6.90;4.80;;;;;;;;;;4754905;30;20040;-95
2022/04/01 11:35:49;;;;;;;6.13;4.55;;;;;;;;;;4757055;30;20028;-93
2022/04/01 11:38:19;;;;;;;4.50;3.00;;;;;;;;;;4758528;30;20044;-94
2022/04/01 11:40:49;;;;;;;6.05;3.55;;;;;;;;;;4759273;30;20032;-95
2022/04/01 11:43:19;;;;;;;11.20;6.30;;;;;;;;;;4760389;30;20024;-95
2022/04/01 11:45:47;;;;;;;5.80;3.42;;;;;;;;;;4758110;30;20040;-95
2022/04/01 11:48:26;;;;;;;5.43;2.80;;;;;;;;;;4758250;30;20457;-95
2022/04/01 11:50:54;;;;;;;5.38;2.75;;;;;;;;;;4778336;29;20084;-94
2022/04/01 11:53:21;;;;;;;3.92;1.95;;;;;;;;;;4812040;29;20038;-93
2022/04/01 11:55:47;;;;;;;4.65;2.40;;;;;;;;;;4811570;29;20027;-94
2022/04/01 11:58:13;;;;;;;5.53;2.38;;;;;;;;;;4796516;29;20041;-94
2022/04/01 12:00:40;;;;;;;3.28;1.80;;;;;;;;;;4811699;29;20076;-94
2022/04/01 12:03:07;;;;;;;19.55;10.35;;;;;;;;;;4811686;29;20093;-95
2022/04/01 12:05:34;;;;;;;8.57;4.00;;;;;;;;;;4811744;29;20054;-94
2022/04/01 12:10:52;;;;;;;7.68;5.60;;;;;;;;;;4899350;23;20401;-94
2022/04/01 12:13:18;;;;;;;2.47;2.13;;;;;;;;;;4886475;29;20111;-94
2022/04/01 12:15:46;;;;;;;4.18;2.55;;;;;;;;;;4886728;29;20033;-93
2022/04/01 12:18:18;;;;;;;3.53;2.00;;;;;;;;;;4886397;29;20026;-93
2022/04/01 12:20:44;;;;;;;;;;;;;;;;;;4886815;29;20033;-94
2022/04/01 12:23:10;;;;;;;5.68;1.60;;;;;;;;;;4886542;29;20236;-94
2022/04/01 12:25:39;;;;;;;3.65;1.92;;;;;;;;;;4886258;29;20377;-94
2022/04/01 12:28:07;;;;;;;7.43;2.35;;;;;;;;;;4885130;29;20044;-94
2022/04/01 12:30:35;;;;;;;8.30;3.90;;;;;;;;;;4869912;29;20027;-94
2022/04/01 12:33:03;;;;;;;2.42;1.50;;;;;;;;;;4886815;29;20459;-94
2022/04/01 12:35:32;;;;;;;4.50;1.52;;;;;;;;;;4887464;29;20090;-94
2022/04/01 12:38:07;;;;;;;3.70;2.08;;;;;;;;;;4886955;29;20029;-93
2022/04/01 12:40:34;;;;;;;7.03;3.42;;;;;;;;;;4886029;29;20077;-94
2022/04/01 12:43:00;;;;;;;6.05;3.72;;;;;;;;;;4869555;29;20404;-93
2022/04/01 12:45:26;;;;;;;4.10;2.15;;;;;;;;;;4869481;29;20058;-94
2022/04/01 12:47:59;;;;;;;5.50;2.25;;;;;;;;;;4884430;29;20056;-94
2022/04/01 12:50:35;;;;;;;7.65;4.75;;;;;;;;;;4886040;29;20407;-93
2022/04/01 12:53:12;;;;;;;5.50;2.70;;;;;;;;;;4885887;29;20404;-95
2022/04/01 12:55:39;;;;;;;9.50;3.15;;;;;;;;;;4886851;29;20025;-94
2022/04/01 12:58:12;;;;;;;7.55;3.03;;;;;;;;;;4885751;29;20037;-92
2022/04/01 13:00:38;;;;;;;8.10;3.65;;;;;;;;;;4885529;29;20518;-92
2022/04/01 13:03:04;;;;;;;4.68;2.92;;;;;;;;;;4884793;29;20033;-92
2022/04/01 13:05:30;;;;;;;7.70;2.35;;;;;;;;;;4884567;29;20036;-93
2022/04/01 13:07:56;;;;;;;6.00;2.65;;;;;;;;;;4885442;29;20029;-91
2022/04/01 13:10:23;;;;;;;2.55;1.85;;;;;;;;;;4885416;29;20068;-92
2022/04/01 13:12:53;;;;;;;3.90;2.67;;;;;;;;;;4885573;29;20029;-92
2022/04/01 13:15:22;;;;;;;3.08;2.13;;;;;;;;;;4884604;29;20029;-93
2022/04/01 13:17:52;;;;;;;3.70;1.60;;;;;;;;;;4885556;29;20025;-92
2022/04/01 13:20:29;;;;;;;3.00;2.20;;;;;;;;;;4885543;29;20100;-92
2022/04/01 13:22:55;;;;;;;4.18;2.60;;;;;;;;;;4885476;29;20048;-93
2022/04/01 13:25:23;;;;;;;3.47;2.40;;;;;;;;;;4868809;29;20056;-91
2022/04/01 13:27:53;;;;;;;3.67;2.70;;;;;;;;;;4869424;29;20029;-94
2022/04/01 13:30:41;;;;;;;7.00;3.17;;;;;;;;;;4872413;29;20033;-95
2022/04/01 13:33:09;;;;;;;6.70;3.22;;;;;;;;;;4978349;23;20060;-91
2022/04/01 13:35:35;;;;;;;8.32;3.58;;;;;;;;;;4904074;29;20037;-93
2022/04/01 13:38:03;;;;;;;6.38;3.50;;;;;;;;;;4889426;29;20040;-93
2022/04/01 13:40:29;;;;;;;6.55;2.95;;;;;;;;;;4871877;29;20087;-92
2022/04/01 13:42:56;;;;;;;6.45;2.20;;;;;;;;;;4886797;29;20098;-92
2022/04/01 13:45:23;;;;;;;3.50;2.33;;;;;;;;;;4903860;29;20028;-92
2022/04/01 13:47:50;;;;;;;6.10;2.70;;;;;;;;;;4903687;29;20029;-92
2022/04/01 13:50:16;;;;;;;7.15;3.17;;;;;;;;;;4903745;29;20021;-92
2022/04/01 13:52:42;;;;;;;2.75;2.15;;;;;;;;;;4886406;29;20036;-91
2022/04/01 13:55:09;;;;;;;4.03;2.10;;;;;;;;;;4886646;29;20127;-91
2022/04/01 13:57:35;;;;;;;11.02;2.47;;;;;;;;;;4903540;29;20108;-91
2022/04/01 14:00:01;;;;;;;4.30;2.45;;;;;;;;;;4885698;29;20070;-92
2022/04/01 14:02:27;;;;;;;6.82;1.90;;;;;;;;;;4886682;29;20049;-92
2022/04/01 14:04:53;;;;;;;5.43;2.67;;;;;;;;;;4902991;29;20060;-92
2022/04/01 14:07:20;;;;;;;2.75;2.03;;;;;;;;;;4903170;29;20032;-91
2022/04/01 14:09:46;;;;;;;12.15;2.08;;;;;;;;;;4903010;29;20392;-93
2022/04/01 14:12:13;;;;;;;3.92;2.15;;;;;;;;;;4902979;29;20345;-91
2022/04/01 14:14:39;;;;;;;4.10;2.30;;;;;;;;;;4903229;29;20032;-93
2022/04/01 14:17:06;;;;;;;4.20;2.20;;;;;;;;;;4886546;29;20123;-93
2022/04/01 14:19:33;;;;;;;3.17;2.25;;;;;;;;;;4903010;29;20036;-93
2022/04/01 14:22:01;;;;;;;2.53;1.95;;;;;;;;;;4902744;29;20403;-92
2022/04/01 14:24:28;;;;;;;3.35;1.75;;;;;;;;;;4902957;29;20032;-92
2022/04/01 14:26:55;;;;;;;3.58;2.40;;;;;;;;;;4902990;29;20301;-92
2022/04/01 14:32:06;;;;;;;1.90;1.58;;;;;;;;;;4902920;29;20120;-92
2022/04/01 14:34:35;;;;;;;3.83;2.10;;;;;;;;;;4902707;29;20408;-92
2022/04/01 14:37:01;;;;;;;16.67;7.47;;;;;;;;;;4902928;29;20028;-91
2022/04/01 14:39:28;;;;;;;6.03;3.17;;;;;;;;;;4902676;29;20052;-91
2022/04/01 14:41:54;;;;;;;11.30;8.15;;;;;;;;;;4904680;29;20032;-87
2022/04/01 14:44:22;;;;;;;4.40;3.25;;;;;;;;;;4902660;29;20111;-91
2022/04/01 14:46:49;;;;;;;3.88;2.80;;;;;;;;;;4902680;29;20036;-94
2022/04/01 14:49:15;;;;;;;6.13;3.95;;;;;;;;;;4885623;29;20068;-92
2022/04/01 14:51:41;;;;;;;5.32;3.30;;;;;;;;;;4902610;29;20025;-93
2022/04/01 14:54:07;;;;;;;6.13;2.85;;;;;;;;;;4885812;29;20043;-92
2022/04/01 14:56:34;;;;;;;3.85;2.20;;;;;;;;;;4902434;29;20115;-92
2022/04/01 14:59:01;;;;;;;4.25;3.35;;;;;;;;;;4903086;29;20322;-91
2022/04/01 15:01:27;;;;;;;5.72;3.03;;;;;;;;;;4902546;29;20043;-92
2022/04/01 15:03:53;;;;;;;4.47;3.53;;;;;;;;;;4902176;29;20029;-92
2022/04/01 15:06:21;;;;;;;7.28;4.28;;;;;;;;;;4902178;29;20408;-92
2022/04/01 15:08:47;;;;;;;6.45;3.58;;;;;;;;;;4902215;29;20040;-92
2022/04/01 15:11:13;;;;;;;7.38;3.50;;;;;;;;;;4902185;29;20054;-92
2022/04/01 15:13:39;;;;;;;5.65;3.03;;;;;;;;;;4885480;29;20040;-92
2022/04/01 15:16:05;;;;;;;12.10;3.70;;;;;;;;;;4885812;29;20123;-91